createdAt,value
2019-04-30T00:00:19.097Z,101200.00
2019-04-30T00:02:56.975Z,101198.00
2019-04-30T00:05:26.566Z,101197.00
2019-04-30T00:07:58.475Z,101194.00
2019-04-30T00:10:36.025Z,101196.00
2019-04-30T00:12:59.434Z,101191.00
2019-04-30T00:15:29.675Z,101194.00
2019-04-30T00:18:01.820Z,101190.00
2019-04-30T00:20:37.146Z,101196.00
2019-04-30T00:23:02.673Z,101194.00
2019-04-30T00:25:35.043Z,101193.00
2019-04-30T00:28:08.680Z,101197.00
2019-04-30T00:30:39.287Z,101200.00
2019-04-30T00:33:10.383Z,101189.00
2019-04-30T00:35:40.051Z,101190.00
2019-04-30T00:38:09.817Z,101185.00
2019-04-30T00:40:39.560Z,101187.00
2019-04-30T00:43:09.288Z,101187.00
2019-04-30T00:45:40.059Z,101176.00
2019-04-30T00:48:10.603Z,101178.00
2019-04-30T00:50:40.877Z,101175.00
2019-04-30T00:53:12.556Z,101182.00
2019-04-30T00:55:48.234Z,101166.00
2019-04-30T00:58:17.756Z,101170.00
2019-04-30T01:01:08.118Z,101171.00
2019-04-30T01:03:39.478Z,101173.00
2019-04-30T01:06:09.938Z,101175.00
2019-04-30T01:08:40.803Z,101164.00
2019-04-30T01:11:11.330Z,101165.00
2019-04-30T01:13:45.526Z,101170.00
2019-04-30T01:16:12.409Z,101167.00
2019-04-30T01:18:42.333Z,101167.00
2019-04-30T01:21:12.898Z,101162.00
2019-04-30T01:23:51.861Z,101164.00
2019-04-30T01:26:15.661Z,101159.00
2019-04-30T01:28:46.673Z,101161.00
2019-04-30T01:31:18.790Z,101158.00
2019-04-30T01:33:49.021Z,101153.00
2019-04-30T01:36:19.347Z,101162.00
2019-04-30T01:38:52.445Z,101153.00
2019-04-30T01:41:27.576Z,101153.00
2019-04-30T01:43:53.337Z,101166.00
2019-04-30T01:46:23.006Z,101158.00
2019-04-30T01:48:52.663Z,101156.00
2019-04-30T01:51:22.438Z,101156.00
2019-04-30T01:53:52.091Z,101164.00
2019-04-30T01:56:32.290Z,101153.00
2019-04-30T01:59:06.288Z,101153.00
2019-04-30T02:01:39.006Z,101150.00
2019-04-30T02:04:08.952Z,101157.00
2019-04-30T02:06:39.169Z,101150.00
2019-04-30T02:09:09.222Z,101143.00
2019-04-30T02:11:38.953Z,101152.00
2019-04-30T02:14:09.028Z,101153.00
2019-04-30T02:16:40.166Z,101148.00
2019-04-30T02:19:10.236Z,101158.00
2019-04-30T02:21:39.897Z,101149.00
2019-04-30T02:24:11.216Z,101152.00
2019-04-30T02:26:40.979Z,101146.00
2019-04-30T02:29:10.655Z,101150.00
2019-04-30T02:31:40.882Z,101149.00
2019-04-30T02:34:15.165Z,101137.00
2019-04-30T02:36:55.911Z,101151.00
2019-04-30T02:39:25.675Z,101144.00
2019-04-30T02:41:56.666Z,101142.00
2019-04-30T02:44:29.328Z,101134.00
2019-04-30T02:47:01.472Z,101139.00
2019-04-30T02:49:33.477Z,101129.00
2019-04-30T02:52:05.329Z,101128.00
2019-04-30T02:54:39.654Z,101129.00
2019-04-30T02:57:13.543Z,101137.00
2019-04-30T02:59:51.101Z,101129.00
2019-04-30T03:02:20.708Z,101123.00
2019-04-30T03:04:50.314Z,101119.00
2019-04-30T03:07:20.004Z,101122.00
2019-04-30T03:09:50.014Z,101126.00
2019-04-30T03:12:20.432Z,101119.00
2019-04-30T03:14:52.065Z,101125.00
2019-04-30T03:17:23.403Z,101116.00
2019-04-30T03:19:54.708Z,101125.00
2019-04-30T03:22:30.115Z,101115.00
2019-04-30T03:24:59.988Z,101111.00
2019-04-30T03:27:30.794Z,101106.00
2019-04-30T03:30:00.473Z,101107.00
2019-04-30T03:32:35.781Z,101104.00
2019-04-30T03:35:03.088Z,101115.00
2019-04-30T03:37:32.935Z,101114.00
2019-04-30T03:40:02.608Z,101118.00
2019-04-30T03:42:32.276Z,101116.00
2019-04-30T03:45:01.911Z,101123.00
2019-04-30T03:47:31.808Z,101115.00
2019-04-30T03:50:01.476Z,101115.00
2019-04-30T03:52:31.163Z,101111.00
2019-04-30T03:55:02.934Z,101116.00
2019-04-30T03:57:32.209Z,101111.00
2019-04-30T04:00:01.897Z,101112.00
2019-04-30T04:02:42.142Z,101117.00
2019-04-30T04:05:20.179Z,101125.00
2019-04-30T04:08:09.603Z,101128.00
2019-04-30T04:10:53.433Z,101125.00
2019-04-30T04:13:23.173Z,101135.00
2019-04-30T04:15:54.618Z,101137.00
2019-04-30T04:18:24.552Z,101136.00
2019-04-30T04:21:07.680Z,101133.00
2019-04-30T04:23:25.750Z,101127.00
2019-04-30T04:25:55.374Z,101129.00
2019-04-30T04:28:30.032Z,101129.00
2019-04-30T04:31:00.309Z,101140.00
2019-04-30T04:33:30.302Z,101133.00
2019-04-30T04:36:02.036Z,101134.00
2019-04-30T04:38:31.692Z,101131.00
2019-04-30T04:41:03.055Z,101129.00
2019-04-30T04:43:32.767Z,101119.00
2019-04-30T04:46:02.426Z,101129.00
2019-04-30T04:48:32.115Z,101126.00
2019-04-30T04:51:02.043Z,101129.00
2019-04-30T04:53:34.499Z,101127.00
2019-04-30T04:56:04.178Z,101131.00
2019-04-30T04:58:33.865Z,101131.00
2019-04-30T05:01:03.528Z,101131.00
2019-04-30T05:03:34.841Z,101128.00
2019-04-30T05:06:04.505Z,101131.00
2019-04-30T05:08:34.163Z,101121.00
2019-04-30T05:11:03.854Z,101127.00
2019-04-30T05:13:34.768Z,101131.00
2019-04-30T05:16:04.547Z,101133.00
2019-04-30T05:18:34.227Z,101131.00
2019-04-30T05:21:03.898Z,101133.00
2019-04-30T05:23:33.578Z,101137.00
2019-04-30T05:26:04.602Z,101143.00
2019-04-30T05:28:34.268Z,101138.00
2019-04-30T05:31:03.919Z,101139.00
2019-04-30T05:33:34.843Z,101142.00
2019-04-30T05:36:05.115Z,101139.00
2019-04-30T05:38:35.813Z,101138.00
2019-04-30T05:41:05.693Z,101132.00
2019-04-30T05:43:35.351Z,101130.00
2019-04-30T05:46:05.015Z,101144.00
2019-04-30T05:48:34.718Z,101141.00
2019-04-30T05:51:04.380Z,101144.00
2019-04-30T05:53:33.988Z,101142.00
2019-04-30T05:56:04.704Z,101148.00
2019-04-30T05:58:34.362Z,101141.00
2019-04-30T06:01:04.130Z,101135.00
2019-04-30T06:03:38.627Z,101149.00
2019-04-30T06:06:08.768Z,101138.00
2019-04-30T06:08:41.645Z,101151.00
2019-04-30T06:11:12.979Z,101149.00
2019-04-30T06:13:48.751Z,101138.00
2019-04-30T06:16:21.000Z,101142.00
2019-04-30T06:18:50.666Z,101153.00
2019-04-30T06:21:21.531Z,101150.00
2019-04-30T06:23:53.119Z,101150.00
2019-04-30T06:26:23.100Z,101152.00
2019-04-30T06:28:53.165Z,101150.00
2019-04-30T06:31:32.187Z,101158.00
2019-04-30T06:33:55.259Z,101150.00
2019-04-30T06:36:26.238Z,101159.00
2019-04-30T06:38:55.913Z,101160.00
2019-04-30T06:41:25.613Z,101164.00
2019-04-30T06:43:56.284Z,101164.00
2019-04-30T06:46:26.301Z,101155.00
2019-04-30T06:48:56.291Z,101160.00
2019-04-30T06:51:25.952Z,101154.00
2019-04-30T06:53:55.640Z,101154.00
2019-04-30T06:56:25.332Z,101154.00
2019-04-30T06:58:55.055Z,101151.00
2019-04-30T07:01:29.103Z,101153.00
2019-04-30T07:04:00.945Z,101157.00
2019-04-30T07:06:36.687Z,101157.00
2019-04-30T07:09:19.747Z,101158.00
2019-04-30T07:11:51.365Z,101157.00
2019-04-30T07:14:21.021Z,101154.00
2019-04-30T07:16:50.737Z,101156.00
2019-04-30T07:19:31.753Z,101164.00
2019-04-30T07:21:51.997Z,101162.00
2019-04-30T07:24:21.959Z,101157.00
2019-04-30T07:26:54.737Z,101152.00
2019-04-30T07:29:23.284Z,101158.00
2019-04-30T07:31:52.990Z,101152.00
2019-04-30T07:34:22.656Z,101160.00
2019-04-30T07:37:10.898Z,101152.00
2019-04-30T07:39:31.302Z,101157.00
2019-04-30T07:41:55.144Z,101153.00
2019-04-30T07:44:33.666Z,101154.00
2019-04-30T07:46:56.842Z,101159.00
2019-04-30T07:49:44.279Z,101156.00
2019-04-30T07:52:00.791Z,101161.00
2019-04-30T07:54:30.106Z,101165.00
2019-04-30T07:57:00.490Z,101163.00
2019-04-30T07:59:30.392Z,101170.00
2019-04-30T08:02:07.657Z,101164.00
2019-04-30T08:04:45.364Z,101169.00
2019-04-30T08:07:15.547Z,101168.00
2019-04-30T08:09:45.478Z,101158.00
2019-04-30T08:12:21.713Z,101164.00
2019-04-30T08:14:46.576Z,101164.00
2019-04-30T08:17:16.319Z,101161.00
2019-04-30T08:19:45.994Z,101156.00
2019-04-30T08:22:15.866Z,101162.00
2019-04-30T08:24:45.515Z,101163.00
2019-04-30T08:27:15.261Z,101158.00
2019-04-30T08:29:46.342Z,101160.00
2019-04-30T08:32:16.138Z,101157.00
2019-04-30T08:34:45.949Z,101160.00
2019-04-30T08:37:19.596Z,101161.00
2019-04-30T08:39:47.021Z,101159.00
2019-04-30T08:42:29.026Z,101155.00
2019-04-30T08:44:48.573Z,101159.00
2019-04-30T08:47:21.075Z,101161.00
2019-04-30T08:49:50.719Z,101159.00
2019-04-30T08:52:20.837Z,101156.00
2019-04-30T08:54:51.778Z,101156.00
2019-04-30T08:57:21.491Z,101155.00
2019-04-30T08:59:51.131Z,101156.00
2019-04-30T09:02:20.787Z,101154.00
2019-04-30T09:04:54.211Z,101158.00
2019-04-30T09:07:23.942Z,101154.00
2019-04-30T09:09:53.673Z,101151.00
2019-04-30T09:12:23.357Z,101156.00
2019-04-30T09:14:54.461Z,101142.00
2019-04-30T09:17:24.127Z,101149.00
2019-04-30T09:19:53.816Z,101142.00
2019-04-30T09:22:23.448Z,101143.00
2019-04-30T09:24:53.165Z,101142.00
2019-04-30T09:27:22.846Z,101143.00
2019-04-30T09:29:52.541Z,101139.00
2019-04-30T09:32:22.214Z,101143.00
2019-04-30T09:34:52.955Z,101142.00
2019-04-30T09:37:22.622Z,101132.00
2019-04-30T09:39:54.204Z,101131.00
2019-04-30T09:42:24.703Z,101132.00
2019-04-30T09:44:57.234Z,101124.00
2019-04-30T09:47:26.810Z,101125.00
2019-04-30T09:49:56.617Z,101123.00
2019-04-30T09:52:30.213Z,101129.00
2019-04-30T09:54:59.427Z,101119.00
2019-04-30T09:57:29.460Z,101117.00
2019-04-30T10:00:00.617Z,101119.00
2019-04-30T10:02:30.593Z,101125.00
2019-04-30T10:05:00.750Z,101118.00
2019-04-30T10:07:30.739Z,101114.00
2019-04-30T10:10:00.424Z,101108.00
2019-04-30T10:12:31.762Z,101119.00
2019-04-30T10:15:04.339Z,101114.00
2019-04-30T10:17:35.645Z,101109.00
2019-04-30T10:20:12.281Z,101122.00
2019-04-30T10:22:41.959Z,101108.00
2019-04-30T10:25:12.589Z,101108.00
2019-04-30T10:27:42.880Z,101102.00
2019-04-30T10:30:13.911Z,101103.00
2019-04-30T10:32:43.588Z,101106.00
2019-04-30T10:35:13.808Z,101106.00
2019-04-30T10:37:44.518Z,101103.00
2019-04-30T10:40:14.655Z,101092.00
2019-04-30T10:42:44.349Z,101092.00
2019-04-30T10:45:15.184Z,101096.00
2019-04-30T10:47:44.867Z,101092.00
2019-04-30T10:50:14.873Z,101092.00
2019-04-30T10:52:44.554Z,101080.00
2019-04-30T10:55:15.263Z,101085.00
2019-04-30T10:57:46.109Z,101079.00
2019-04-30T11:00:18.701Z,101072.00
2019-04-30T11:02:49.687Z,101077.00
2019-04-30T11:05:21.197Z,101075.00
2019-04-30T11:07:50.962Z,101079.00
2019-04-30T11:10:20.831Z,101070.00
2019-04-30T11:12:50.532Z,101060.00
2019-04-30T11:15:21.451Z,101067.00
2019-04-30T11:17:51.363Z,101068.00
2019-04-30T11:20:23.013Z,100990.00
2019-04-30T11:22:54.774Z,101059.00
2019-04-30T11:25:26.395Z,101055.00
2019-04-30T11:27:56.980Z,101057.00
2019-04-30T11:30:29.502Z,101060.00
2019-04-30T11:32:59.198Z,101057.00
2019-04-30T11:35:29.709Z,101059.00
2019-04-30T11:37:59.652Z,101060.00
2019-04-30T11:40:36.812Z,101054.00
2019-04-30T11:43:03.833Z,101048.00
2019-04-30T11:45:56.322Z,101047.00
2019-04-30T11:48:28.908Z,101044.00
2019-04-30T11:50:59.514Z,101043.00
2019-04-30T11:53:30.762Z,101045.00
2019-04-30T11:56:00.760Z,101039.00
2019-04-30T11:58:31.905Z,101042.00
2019-04-30T12:01:01.954Z,101027.00
2019-04-30T12:03:31.661Z,101034.00
2019-04-30T12:06:01.384Z,101035.00
2019-04-30T12:08:32.729Z,101038.00
2019-04-30T12:11:04.036Z,101037.00
2019-04-30T12:13:34.707Z,101035.00
2019-04-30T12:16:08.709Z,101033.00
2019-04-30T12:18:38.553Z,101023.00
2019-04-30T12:21:08.255Z,101017.00
2019-04-30T12:23:37.914Z,101027.00
2019-04-30T12:26:09.229Z,101016.00
2019-04-30T12:28:39.100Z,101018.00
2019-04-30T12:31:09.875Z,101018.00
2019-04-30T12:33:39.604Z,101010.00
2019-04-30T12:36:10.507Z,101009.00
2019-04-30T12:38:40.162Z,101009.00
2019-04-30T12:41:09.979Z,101011.00
2019-04-30T12:43:41.414Z,101007.00
2019-04-30T12:46:12.632Z,101004.00
2019-04-30T12:48:43.986Z,101000.00
2019-04-30T12:51:15.290Z,101000.00
2019-04-30T12:53:46.598Z,101004.00
2019-04-30T12:56:26.665Z,100992.00
2019-04-30T12:58:52.186Z,101001.00
2019-04-30T13:01:23.909Z,100994.00
2019-04-30T13:03:58.703Z,100989.00
2019-04-30T13:06:30.227Z,100988.00
2019-04-30T13:09:02.560Z,100988.00
2019-04-30T13:11:32.950Z,100985.00
2019-04-30T13:14:04.963Z,100985.00
2019-04-30T13:16:35.117Z,100980.00
2019-04-30T13:19:04.954Z,100981.00
2019-04-30T13:21:35.217Z,100974.00
2019-04-30T13:24:05.047Z,100975.00
2019-04-30T13:26:34.671Z,100980.00
2019-04-30T13:29:06.001Z,100975.00
2019-04-30T13:31:35.761Z,100974.00
2019-04-30T13:34:08.522Z,100967.00
2019-04-30T13:36:40.710Z,100966.00
2019-04-30T13:39:14.242Z,100966.00
2019-04-30T13:41:50.741Z,100964.00
2019-04-30T13:44:21.706Z,100953.00
2019-04-30T13:46:51.437Z,100951.00
2019-04-30T13:49:21.121Z,100956.00
2019-04-30T13:51:50.786Z,100949.00
2019-04-30T13:54:20.533Z,100955.00
2019-04-30T13:56:50.242Z,100953.00
2019-04-30T13:59:19.928Z,100954.00
2019-04-30T14:01:49.665Z,100953.00
2019-04-30T14:04:39.099Z,100935.00
2019-04-30T14:07:22.370Z,100932.00
2019-04-30T14:09:52.579Z,100943.00
2019-04-30T14:12:22.608Z,100937.00
2019-04-30T14:14:52.510Z,100937.00
2019-04-30T14:17:22.227Z,100928.00
2019-04-30T14:19:51.899Z,100935.00
2019-04-30T14:22:21.570Z,100918.00
2019-04-30T14:24:51.264Z,100937.00
2019-04-30T14:27:20.956Z,100919.00
2019-04-30T14:29:50.643Z,100926.00
2019-04-30T14:32:20.366Z,100920.00
2019-04-30T14:34:50.649Z,100914.00
2019-04-30T14:37:20.808Z,100918.00
2019-04-30T14:39:51.012Z,100927.00
2019-04-30T14:42:21.939Z,100933.00
2019-04-30T14:44:54.429Z,100926.00
2019-04-30T14:47:42.985Z,100924.00
2019-04-30T14:50:14.897Z,100930.00
2019-04-30T14:52:49.304Z,100914.00
2019-04-30T14:55:39.403Z,100920.00
2019-04-30T14:58:15.046Z,100918.00
2019-04-30T15:01:02.264Z,100904.00
2019-04-30T15:03:34.716Z,100904.00
2019-04-30T15:06:04.440Z,100915.00
2019-04-30T15:08:34.234Z,100907.00
2019-04-30T15:11:04.196Z,100904.00
2019-04-30T15:13:35.463Z,100897.00
2019-04-30T15:16:05.860Z,100893.00
2019-04-30T15:18:35.528Z,100893.00
2019-04-30T15:21:05.510Z,100899.00
2019-04-30T15:23:58.612Z,100896.00
2019-04-30T15:26:25.810Z,100890.00
2019-04-30T15:28:57.532Z,100883.00
2019-04-30T15:31:26.961Z,100890.00
2019-04-30T15:34:02.861Z,100874.00
2019-04-30T15:36:31.130Z,100876.00
2019-04-30T15:39:08.632Z,100874.00
2019-04-30T15:41:38.665Z,100876.00
2019-04-30T15:44:09.063Z,100876.00
2019-04-30T15:46:38.824Z,100877.00
2019-04-30T15:49:08.894Z,100860.00
2019-04-30T15:51:38.564Z,100855.00
2019-04-30T15:54:08.262Z,100857.00
2019-04-30T15:56:43.709Z,100860.00
2019-04-30T15:59:19.912Z,100856.00
2019-04-30T16:01:51.350Z,100849.00
2019-04-30T16:04:25.885Z,100846.00
2019-04-30T16:06:55.673Z,100854.00
2019-04-30T16:09:28.526Z,100847.00
2019-04-30T16:11:59.997Z,100843.00
2019-04-30T16:14:34.232Z,100844.00
2019-04-30T16:17:05.567Z,100839.00
2019-04-30T16:19:35.240Z,100846.00
2019-04-30T16:22:05.219Z,100835.00
2019-04-30T16:24:34.903Z,100822.00
2019-04-30T16:27:04.813Z,100825.00
2019-04-30T16:29:34.616Z,100825.00
2019-04-30T16:32:04.382Z,100833.00
2019-04-30T16:34:35.140Z,100829.00
2019-04-30T16:37:04.812Z,100829.00
2019-04-30T16:39:34.573Z,100825.00
2019-04-30T16:42:04.240Z,100826.00
2019-04-30T16:44:34.141Z,100821.00
2019-04-30T16:47:13.649Z,100823.00
2019-04-30T16:49:35.335Z,100812.00
2019-04-30T16:52:05.113Z,100808.00
2019-04-30T16:54:34.826Z,100803.00
2019-04-30T16:57:06.839Z,100799.00
2019-04-30T16:59:39.152Z,100807.00
2019-04-30T17:02:09.471Z,100808.00
2019-04-30T17:04:46.719Z,100803.00
2019-04-30T17:07:23.576Z,100801.00
2019-04-30T17:10:14.096Z,100802.00
2019-04-30T17:12:53.743Z,100797.00
2019-04-30T17:15:29.190Z,100793.00
2019-04-30T17:18:00.118Z,100792.00
2019-04-30T17:20:30.756Z,100797.00
2019-04-30T17:23:01.444Z,100797.00
2019-04-30T17:25:31.245Z,100792.00
2019-04-30T17:28:01.454Z,100793.00
2019-04-30T17:30:31.564Z,100786.00
2019-04-30T17:33:01.326Z,100783.00
2019-04-30T17:35:31.054Z,100784.00
2019-04-30T17:38:00.770Z,100777.00
2019-04-30T17:40:31.250Z,100781.00
2019-04-30T17:43:00.935Z,100785.00
2019-04-30T17:45:30.704Z,100786.00
2019-04-30T17:48:00.390Z,100773.00
2019-04-30T17:50:32.032Z,100777.00
2019-04-30T17:53:01.734Z,100773.00
2019-04-30T17:55:31.477Z,100766.00
2019-04-30T17:58:01.166Z,100767.00
2019-04-30T18:00:32.526Z,100762.00
2019-04-30T18:03:03.074Z,100768.00
2019-04-30T18:05:32.759Z,100761.00
2019-04-30T18:08:02.467Z,100760.00
2019-04-30T18:10:33.433Z,100760.00
2019-04-30T18:13:03.123Z,100761.00
2019-04-30T18:15:32.887Z,100753.00
2019-04-30T18:18:18.988Z,100752.00
2019-04-30T18:20:59.236Z,100754.00
2019-04-30T18:23:45.597Z,100755.00
2019-04-30T18:26:18.351Z,100755.00
2019-04-30T18:28:48.036Z,100748.00
2019-04-30T18:31:19.042Z,100758.00
2019-04-30T18:33:51.453Z,100758.00
2019-04-30T18:36:21.241Z,100752.00
2019-04-30T18:38:59.005Z,100750.00
2019-04-30T18:41:29.718Z,100757.00
2019-04-30T18:43:59.709Z,100755.00
2019-04-30T18:46:29.474Z,100754.00
2019-04-30T18:48:59.291Z,100757.00
2019-04-30T18:51:38.524Z,100758.00
2019-04-30T18:54:00.489Z,100756.00
2019-04-30T18:56:30.093Z,100755.00
2019-04-30T18:58:59.861Z,100755.00
2019-04-30T19:01:31.189Z,100752.00
2019-04-30T19:04:01.844Z,100749.00
2019-04-30T19:06:34.536Z,100755.00
2019-04-30T19:09:23.882Z,100750.00
2019-04-30T19:11:55.214Z,100756.00
2019-04-30T19:14:29.363Z,100761.00
2019-04-30T19:17:01.002Z,100744.00
2019-04-30T19:19:44.376Z,100753.00
2019-04-30T19:22:14.064Z,100758.00
2019-04-30T19:24:55.992Z,100755.00
2019-04-30T19:27:15.181Z,100750.00
2019-04-30T19:29:44.877Z,100747.00
2019-04-30T19:32:14.647Z,100744.00
2019-04-30T19:34:45.703Z,100747.00
2019-04-30T19:37:16.322Z,100755.00
2019-04-30T19:39:46.003Z,100753.00
2019-04-30T19:42:15.817Z,100751.00
2019-04-30T19:44:56.075Z,100755.00
2019-04-30T19:47:18.980Z,100758.00
2019-04-30T19:49:48.852Z,100752.00
2019-04-30T19:52:19.624Z,100751.00
2019-04-30T19:54:54.932Z,100755.00
2019-04-30T19:57:25.406Z,100754.00
2019-04-30T19:59:55.069Z,100752.00
2019-04-30T20:02:29.470Z,100750.00
2019-04-30T20:05:01.263Z,100742.00
2019-04-30T20:07:31.036Z,100747.00
2019-04-30T20:10:03.954Z,100742.00
2019-04-30T20:12:32.122Z,100742.00
2019-04-30T20:15:16.578Z,100745.00
2019-04-30T20:17:38.564Z,100734.00
2019-04-30T20:20:09.353Z,100734.00
2019-04-30T20:22:39.101Z,100735.00
2019-04-30T20:25:09.299Z,100730.00
2019-04-30T20:27:39.659Z,100735.00
2019-04-30T20:30:09.993Z,100737.00
2019-04-30T20:32:39.706Z,100728.00
2019-04-30T20:35:12.827Z,100732.00
2019-04-30T20:38:01.327Z,100731.00
2019-04-30T20:40:42.984Z,100732.00
2019-04-30T20:43:05.896Z,100735.00
2019-04-30T20:45:41.007Z,100734.00
2019-04-30T20:48:13.525Z,100733.00
2019-04-30T20:50:46.813Z,100729.00
2019-04-30T20:53:16.484Z,100737.00
2019-04-30T20:55:46.333Z,100727.00
2019-04-30T20:58:16.033Z,100731.00
2019-04-30T21:01:00.020Z,100727.00
2019-04-30T21:03:20.169Z,100724.00
2019-04-30T21:05:49.849Z,100729.00
2019-04-30T21:08:19.844Z,100717.00
2019-04-30T21:10:49.574Z,100721.00
2019-04-30T21:13:19.449Z,100716.00
2019-04-30T21:15:49.680Z,100713.00
2019-04-30T21:18:19.795Z,100717.00
2019-04-30T21:20:52.028Z,100717.00
2019-04-30T21:23:21.704Z,100716.00
2019-04-30T21:25:51.398Z,100716.00
2019-04-30T21:28:21.100Z,100715.00
2019-04-30T21:30:52.207Z,100717.00
2019-04-30T21:33:23.507Z,100725.00
2019-04-30T21:35:55.011Z,100706.00
2019-04-30T21:38:24.687Z,100720.00
2019-04-30T21:40:54.401Z,100716.00
2019-04-30T21:43:24.461Z,100714.00
2019-04-30T21:45:55.780Z,100717.00
2019-04-30T21:48:25.484Z,100705.00
2019-04-30T21:50:55.313Z,100711.00
2019-04-30T21:53:24.993Z,100711.00
2019-04-30T21:55:54.835Z,100703.00
2019-04-30T21:58:24.572Z,100704.00
2019-04-30T22:01:09.713Z,100703.00
2019-04-30T22:03:40.657Z,100696.00
2019-04-30T22:06:12.158Z,100694.00
2019-04-30T22:08:41.684Z,100704.00
2019-04-30T22:11:13.397Z,100700.00
2019-04-30T22:13:43.466Z,100708.00
2019-04-30T22:16:20.309Z,100696.00
2019-04-30T22:18:50.063Z,100696.00
2019-04-30T22:21:19.746Z,100691.00
2019-04-30T22:23:49.755Z,100692.00
2019-04-30T22:26:20.757Z,100687.00
2019-04-30T22:28:52.118Z,100692.00
2019-04-30T22:31:21.826Z,100692.00
2019-04-30T22:33:51.511Z,100692.00
2019-04-30T22:36:22.851Z,100682.00
2019-04-30T22:38:55.688Z,100688.00
2019-04-30T22:41:26.999Z,100689.00
2019-04-30T22:43:56.692Z,100681.00
2019-04-30T22:46:26.367Z,100678.00
2019-04-30T22:48:57.103Z,100682.00
2019-04-30T22:51:26.809Z,100681.00
2019-04-30T22:53:57.376Z,100673.00
2019-04-30T22:56:27.062Z,100679.00
2019-04-30T22:58:56.810Z,100677.00
2019-04-30T23:01:47.308Z,100673.00
2019-04-30T23:04:21.758Z,100679.00
2019-04-30T23:06:55.531Z,100670.00
2019-04-30T23:09:27.643Z,100667.00
2019-04-30T23:11:57.316Z,100663.00
2019-04-30T23:14:30.956Z,100668.00
2019-04-30T23:17:03.785Z,100670.00
2019-04-30T23:19:35.867Z,100675.00
2019-04-30T23:22:07.446Z,100668.00
2019-04-30T23:24:37.581Z,100664.00
2019-04-30T23:27:07.301Z,100667.00
2019-04-30T23:29:37.016Z,100661.00
2019-04-30T23:32:07.189Z,100659.00
2019-04-30T23:34:36.727Z,100656.00
2019-04-30T23:37:06.407Z,100657.00
2019-04-30T23:39:36.222Z,100647.00
2019-04-30T23:42:05.960Z,100645.00
2019-04-30T23:44:35.728Z,100645.00
2019-04-30T23:47:07.009Z,100643.00
2019-04-30T23:49:39.393Z,100635.00
2019-04-30T23:52:09.110Z,100641.00
2019-04-30T23:54:38.818Z,100627.00
2019-04-30T23:57:08.569Z,100644.00
2019-04-30T23:59:42.122Z,100632.00
